createdAt,value
2024-03-02T00:01:33.638Z,98571.53
2024-03-02T00:04:35.961Z,98565.56
2024-03-02T00:07:38.333Z,98565.69
2024-03-02T00:10:42.136Z,98564.16
2024-03-02T00:13:44.409Z,98569.91
2024-03-02T00:16:46.677Z,98571.41
2024-03-02T00:19:49.207Z,98559.03
2024-03-02T00:22:51.745Z,98563.75
2024-03-02T00:25:55.971Z,98565.56
2024-03-02T00:28:58.635Z,98569.56
2024-03-02T00:32:02.041Z,98561.81
2024-03-02T00:35:06.225Z,98568.84
2024-03-02T00:38:08.535Z,98569.34
2024-03-02T00:41:18.494Z,98577.59
2024-03-02T00:44:27.655Z,98570.75
2024-03-02T00:47:29.939Z,98575.53
2024-03-02T00:50:33.811Z,98568.75
2024-03-02T00:53:36.035Z,98574.56
2024-03-02T00:56:38.304Z,98575.22
2024-03-02T00:59:40.611Z,98571.56
2024-03-02T01:02:45.112Z,98563.50
2024-03-02T01:05:47.301Z,98562.50
2024-03-02T01:08:52.658Z,98560.19
2024-03-02T01:11:55.434Z,98548.31
2024-03-02T01:14:57.654Z,98548.53
2024-03-02T01:17:59.877Z,98545.44
2024-03-02T01:21:02.753Z,98546.09
2024-03-02T01:24:05.284Z,98545.50
2024-03-02T01:27:07.534Z,98542.50
2024-03-02T01:30:10.205Z,98540.16
2024-03-02T01:33:12.505Z,98533.31
2024-03-02T01:36:14.765Z,98531.38
2024-03-02T01:39:16.980Z,98535.41
2024-03-02T01:42:19.379Z,98542.13
2024-03-02T01:45:21.761Z,98538.25
2024-03-02T01:48:24.019Z,98541.31
2024-03-02T01:51:26.443Z,98536.03
2024-03-02T01:54:28.836Z,98544.22
2024-03-02T01:57:31.291Z,98547.34
2024-03-02T02:00:33.731Z,98545.78
2024-03-02T02:03:36.044Z,98541.69
2024-03-02T02:06:38.365Z,98541.22
2024-03-02T02:09:40.700Z,98544.78
2024-03-02T02:12:43.047Z,98538.06
2024-03-02T02:15:45.319Z,98542.13
2024-03-02T02:18:47.578Z,98542.34
2024-03-02T02:21:49.859Z,98538.34
2024-03-02T02:24:52.160Z,98543.19
2024-03-02T02:27:55.277Z,98528.78
2024-03-02T02:30:57.772Z,98525.03
2024-03-02T02:34:00.187Z,98527.19
2024-03-02T02:37:02.652Z,98538.88
2024-03-02T02:40:06.028Z,98548.63
2024-03-02T02:43:08.260Z,98556.03
2024-03-02T02:46:10.588Z,98544.66
2024-03-02T02:49:12.855Z,98554.50
2024-03-02T02:52:15.027Z,98548.63
2024-03-02T02:55:17.406Z,98536.59
2024-03-02T02:58:19.665Z,98542.97
2024-03-02T03:01:21.900Z,98540.31
2024-03-02T03:04:24.213Z,98545.28
2024-03-02T03:07:26.358Z,98552.84
2024-03-02T03:10:29.083Z,98548.00
2024-03-02T03:13:35.339Z,98556.84
2024-03-02T03:16:37.465Z,98560.97
2024-03-02T03:19:39.936Z,98561.53
2024-03-02T03:22:42.152Z,98559.88
2024-03-02T03:25:44.802Z,98558.66
2024-03-02T03:28:47.035Z,98551.34
2024-03-02T03:31:49.198Z,98554.69
2024-03-02T03:34:51.488Z,98554.69
2024-03-02T03:37:53.772Z,98550.69
2024-03-02T03:40:56.320Z,98561.13
2024-03-02T03:43:58.617Z,98559.91
2024-03-02T03:47:03.051Z,98557.53
2024-03-02T03:50:08.260Z,98557.94
2024-03-02T03:53:10.856Z,98568.53
2024-03-02T03:56:13.055Z,98571.47
2024-03-02T03:59:15.333Z,98566.38
2024-03-02T04:02:17.576Z,98569.97
2024-03-02T04:05:19.786Z,98570.22
2024-03-02T04:08:21.992Z,98577.78
2024-03-02T04:11:24.217Z,98581.44
2024-03-02T04:14:26.544Z,98582.69
2024-03-02T04:17:28.771Z,98576.34
2024-03-02T04:20:31.226Z,98578.09
2024-03-02T04:23:33.493Z,98575.06
2024-03-02T04:26:35.775Z,98575.38
2024-03-02T04:29:37.955Z,98577.34
2024-03-02T04:32:40.198Z,98575.00
2024-03-02T04:35:42.421Z,98575.00
2024-03-02T04:38:44.736Z,98576.19
2024-03-02T04:41:46.885Z,98577.75
2024-03-02T04:44:49.574Z,98572.81
2024-03-02T04:47:51.833Z,98576.56
2024-03-02T04:50:54.017Z,98573.00
2024-03-02T04:53:56.364Z,98573.31
2024-03-02T04:56:59.407Z,98581.75
2024-03-02T05:00:02.000Z,98578.22
2024-03-02T05:03:04.414Z,98582.22
2024-03-02T05:06:07.157Z,98584.56
2024-03-02T05:09:12.399Z,98576.91
2024-03-02T05:12:33.106Z,98576.97
2024-03-02T05:15:35.324Z,98579.94
2024-03-02T05:18:38.684Z,98587.69
2024-03-02T05:21:40.930Z,98584.22
2024-03-02T05:24:43.364Z,98580.16
2024-03-02T05:27:47.525Z,98587.09
2024-03-02T05:30:50.836Z,98581.34
2024-03-02T05:33:57.288Z,98582.44
2024-03-02T05:37:00.496Z,98589.31
2024-03-02T05:40:02.791Z,98606.59
2024-03-02T05:43:05.278Z,98613.25
2024-03-02T05:46:07.504Z,98616.28
2024-03-02T05:49:10.877Z,98614.72
2024-03-02T05:52:13.578Z,98618.59
2024-03-02T05:55:15.977Z,98628.47
2024-03-02T05:58:38.381Z,98628.69
2024-03-02T06:01:41.194Z,98629.75
2024-03-02T06:04:43.515Z,98631.09
2024-03-02T06:07:45.875Z,98628.88
2024-03-02T06:10:48.266Z,98635.16
2024-03-02T06:13:50.527Z,98631.19
2024-03-02T06:16:52.732Z,98629.53
2024-03-02T06:19:54.943Z,98626.50
2024-03-02T06:22:57.155Z,98622.06
2024-03-02T06:25:59.363Z,98626.81
2024-03-02T06:29:03.398Z,98633.19
2024-03-02T06:32:05.952Z,98635.09
2024-03-02T06:35:11.115Z,98638.75
2024-03-02T06:38:13.308Z,98631.19
2024-03-02T06:41:15.519Z,98642.34
2024-03-02T06:44:17.745Z,98640.91
2024-03-02T06:47:21.495Z,98638.25
2024-03-02T06:50:23.749Z,98634.53
2024-03-02T06:53:26.124Z,98645.44
2024-03-02T06:56:28.343Z,98646.06
2024-03-02T06:59:30.539Z,98644.50
2024-03-02T07:02:33.037Z,98643.13
2024-03-02T07:05:35.387Z,98639.03
2024-03-02T07:08:37.693Z,98639.03
2024-03-02T07:11:39.928Z,98644.44
2024-03-02T07:15:00.770Z,98635.13
2024-03-02T07:18:03.067Z,98647.84
2024-03-02T07:21:05.322Z,98644.28
2024-03-02T07:24:10.249Z,98647.53
2024-03-02T07:27:13.862Z,98651.66
2024-03-02T07:30:17.694Z,98644.97
2024-03-02T07:33:20.121Z,98653.44
2024-03-02T07:36:22.308Z,98654.44
2024-03-02T07:39:25.147Z,98656.56
2024-03-02T07:42:27.421Z,98654.31
2024-03-02T07:45:29.673Z,98658.16
2024-03-02T07:48:32.299Z,98660.31
2024-03-02T07:51:34.550Z,98650.25
2024-03-02T07:54:37.518Z,98657.22
2024-03-02T07:57:39.917Z,98655.94
2024-03-02T08:00:42.391Z,98667.75
2024-03-02T08:03:51.294Z,98664.41
2024-03-02T08:06:53.695Z,98667.69
2024-03-02T08:09:57.993Z,98664.97
2024-03-02T08:13:00.358Z,98674.06
2024-03-02T08:16:04.589Z,98677.28
2024-03-02T08:19:06.857Z,98676.38
2024-03-02T08:22:09.236Z,98679.63
2024-03-02T08:25:11.889Z,98676.78
2024-03-02T08:28:14.186Z,98676.56
2024-03-02T08:31:16.403Z,98676.66
2024-03-02T08:34:18.707Z,98682.06
2024-03-02T08:37:20.872Z,98679.78
2024-03-02T08:40:23.069Z,98679.63
2024-03-02T08:43:26.135Z,98683.06
2024-03-02T08:46:28.438Z,98682.00
2024-03-02T08:49:36.157Z,98680.56
2024-03-02T08:52:41.423Z,98679.09
2024-03-02T08:55:43.596Z,98676.97
2024-03-02T08:58:45.985Z,98677.94
2024-03-02T09:01:48.210Z,98674.81
2024-03-02T09:04:50.717Z,98678.06
2024-03-02T09:07:52.870Z,98666.41
2024-03-02T09:10:56.157Z,98679.59
2024-03-02T09:13:58.876Z,98677.81
2024-03-02T09:17:01.086Z,98666.53
2024-03-02T09:20:05.142Z,98671.72
2024-03-02T09:23:07.421Z,98667.56
2024-03-02T09:26:09.675Z,98664.13
2024-03-02T09:29:11.826Z,98664.63
2024-03-02T09:32:15.573Z,98666.69
2024-03-02T09:35:18.012Z,98668.56
2024-03-02T09:38:20.240Z,98669.06
2024-03-02T09:41:22.572Z,98668.38
2024-03-02T09:44:26.227Z,98672.47
2024-03-02T09:47:28.485Z,98672.56
2024-03-02T09:50:30.762Z,98675.81
2024-03-02T09:53:34.853Z,98671.56
2024-03-02T09:56:37.324Z,98668.94
2024-03-02T09:59:39.635Z,98673.75
2024-03-02T10:02:42.836Z,98677.56
2024-03-02T10:05:45.021Z,98671.88
2024-03-02T10:08:47.271Z,98676.72
2024-03-02T10:11:49.455Z,98672.09
2024-03-02T10:15:04.605Z,98677.31
2024-03-02T10:18:10.316Z,98672.00
2024-03-02T10:21:16.314Z,98675.34
2024-03-02T10:24:22.404Z,98674.38
2024-03-02T10:27:27.553Z,98671.63
2024-03-02T10:30:30.737Z,98668.19
2024-03-02T10:33:33.014Z,98666.13
2024-03-02T10:36:36.390Z,98673.78
2024-03-02T10:39:41.357Z,98673.78
2024-03-02T10:42:46.402Z,98664.91
2024-03-02T10:45:51.794Z,98665.63
2024-03-02T10:48:54.200Z,98658.63
2024-03-02T10:51:56.558Z,98660.13
2024-03-02T10:54:58.890Z,98655.63
2024-03-02T10:58:03.401Z,98662.69
2024-03-02T11:01:08.502Z,98660.59
2024-03-02T11:04:16.562Z,98658.75
2024-03-02T11:07:21.914Z,98654.34
2024-03-02T11:10:26.664Z,98658.75
2024-03-02T11:13:34.665Z,98659.22
2024-03-02T11:16:39.659Z,98660.41
2024-03-02T11:19:42.348Z,98650.09
2024-03-02T11:22:45.454Z,98643.22
2024-03-02T11:25:48.556Z,98651.56
2024-03-02T11:28:50.778Z,98641.28
2024-03-02T11:32:00.395Z,98638.63
2024-03-02T11:35:03.502Z,98641.94
2024-03-02T11:38:05.744Z,98636.38
2024-03-02T11:41:10.034Z,98634.28
2024-03-02T11:44:13.313Z,98634.78
2024-03-02T11:47:17.126Z,98629.16
2024-03-02T11:50:38.563Z,98628.56
2024-03-02T11:53:41.658Z,98627.19
2024-03-02T11:56:43.916Z,98631.22
2024-03-02T11:59:46.817Z,98629.81
2024-03-02T12:03:00.668Z,98629.94
2024-03-02T12:06:03.678Z,98629.88
2024-03-02T12:09:06.190Z,98634.69
2024-03-02T12:12:10.236Z,98634.56
2024-03-02T12:15:12.421Z,98626.81
2024-03-02T12:18:14.663Z,98630.97
2024-03-02T12:21:17.074Z,98632.31
2024-03-02T12:24:19.600Z,98632.13
2024-03-02T12:27:22.423Z,98634.59
2024-03-02T12:30:25.212Z,98634.91
2024-03-02T12:33:28.717Z,98641.66
2024-03-02T12:36:39.295Z,98643.22
2024-03-02T12:39:45.536Z,98638.72
2024-03-02T12:42:48.129Z,98642.53
2024-03-02T12:45:50.374Z,98633.78
2024-03-02T12:48:52.816Z,98638.22
2024-03-02T12:51:55.281Z,98646.53
2024-03-02T12:55:00.563Z,98643.25
2024-03-02T12:58:04.346Z,98643.16
2024-03-02T13:01:10.612Z,98646.38
2024-03-02T13:04:12.941Z,98643.91
2024-03-02T13:07:15.154Z,98638.34
2024-03-02T13:10:18.229Z,98645.72
2024-03-02T13:13:20.470Z,98642.47
2024-03-02T13:16:27.444Z,98637.06
2024-03-02T13:19:35.685Z,98638.72
2024-03-02T13:22:37.918Z,98636.25
2024-03-02T13:25:40.081Z,98631.50
2024-03-02T13:28:42.286Z,98636.81
2024-03-02T13:31:44.873Z,98630.75
2024-03-02T13:34:47.083Z,98633.91
2024-03-02T13:37:51.214Z,98637.03
2024-03-02T13:40:53.558Z,98635.06
2024-03-02T13:43:55.735Z,98637.03
2024-03-02T13:46:59.209Z,98631.50
2024-03-02T13:50:03.033Z,98639.81
2024-03-02T13:53:05.610Z,98637.59
2024-03-02T13:56:08.090Z,98642.88
2024-03-02T13:59:10.291Z,98638.50
2024-03-02T14:02:13.669Z,98642.16
2024-03-02T14:05:16.211Z,98634.56
2024-03-02T14:08:18.980Z,98647.53
2024-03-02T14:11:21.306Z,98643.72
2024-03-02T14:14:24.097Z,98648.91
2024-03-02T14:17:26.682Z,98651.09
2024-03-02T14:20:28.936Z,98657.34
2024-03-02T14:23:31.161Z,98649.09
2024-03-02T14:26:34.281Z,98654.59
2024-03-02T14:29:38.769Z,98653.25
2024-03-02T14:32:41.143Z,98655.94
2024-03-02T14:35:43.420Z,98654.59
2024-03-02T14:39:01.239Z,98661.66
2024-03-02T14:42:07.902Z,98654.13
2024-03-02T14:45:10.461Z,98658.44
2024-03-02T14:48:13.062Z,98655.09
2024-03-02T14:51:15.503Z,98649.66
2024-03-02T14:54:17.888Z,98650.75
2024-03-02T14:57:20.180Z,98651.72
2024-03-02T15:00:22.358Z,98653.69
2024-03-02T15:03:24.693Z,98656.47
2024-03-02T15:06:33.383Z,98650.53
2024-03-02T15:09:36.827Z,98658.34
2024-03-02T15:12:39.158Z,98657.47
2024-03-02T15:15:42.172Z,98665.63
2024-03-02T15:18:44.507Z,98662.47
2024-03-02T15:21:46.882Z,98664.13
2024-03-02T15:24:49.187Z,98671.09
2024-03-02T15:27:51.601Z,98672.22
2024-03-02T15:30:55.894Z,98667.66
2024-03-02T15:34:00.287Z,98667.75
2024-03-02T15:37:02.805Z,98664.53
2024-03-02T15:40:09.777Z,98668.06
2024-03-02T15:43:22.818Z,98661.78
2024-03-02T15:46:25.072Z,98659.06
2024-03-02T15:49:28.563Z,98663.41
2024-03-02T15:52:31.487Z,98662.84
2024-03-02T15:55:35.564Z,98663.50
2024-03-02T15:58:39.279Z,98665.16
2024-03-02T16:01:43.220Z,98668.69
2024-03-02T16:04:45.641Z,98665.94
2024-03-02T16:07:47.893Z,98665.81
2024-03-02T16:10:52.324Z,98663.41
2024-03-02T16:13:54.562Z,98672.34
2024-03-02T16:17:00.943Z,98662.84
2024-03-02T16:20:14.804Z,98671.38
2024-03-02T16:23:17.046Z,98672.72
2024-03-02T16:26:19.206Z,98671.63
2024-03-02T16:29:21.317Z,98677.59
2024-03-02T16:32:23.531Z,98667.41
2024-03-02T16:35:26.076Z,98676.88
2024-03-02T16:38:28.242Z,98681.38
2024-03-02T16:41:34.010Z,98684.25
2024-03-02T16:44:36.236Z,98685.81
2024-03-02T16:47:40.041Z,98688.06
2024-03-02T16:50:42.362Z,98689.25
2024-03-02T16:53:44.620Z,98691.03
2024-03-02T16:56:47.029Z,98685.03
2024-03-02T16:59:49.270Z,98688.28
2024-03-02T17:02:53.543Z,98693.38
2024-03-02T17:05:55.853Z,98686.63
2024-03-02T17:08:59.347Z,98688.06
2024-03-02T17:12:01.809Z,98687.41
2024-03-02T17:15:05.526Z,98694.25
2024-03-02T17:18:08.010Z,98691.16
2024-03-02T17:21:10.257Z,98691.19
2024-03-02T17:24:12.461Z,98695.81
2024-03-02T17:27:15.282Z,98696.81
2024-03-02T17:30:23.641Z,98693.63
2024-03-02T17:33:27.728Z,98689.09
2024-03-02T17:36:30.080Z,98699.63
2024-03-02T17:39:32.434Z,98705.28
2024-03-02T17:42:34.740Z,98701.31
2024-03-02T17:45:38.883Z,98695.97
2024-03-02T17:48:41.414Z,98705.28
2024-03-02T17:51:44.589Z,98702.25
2024-03-02T17:54:46.829Z,98704.06
2024-03-02T17:57:52.165Z,98704.41
2024-03-02T18:00:58.264Z,98699.97
2024-03-02T18:04:10.347Z,98711.50
2024-03-02T18:07:12.955Z,98701.13
2024-03-02T18:10:15.326Z,98714.59
2024-03-02T18:13:17.791Z,98714.69
2024-03-02T18:16:20.369Z,98709.28
2024-03-02T18:19:22.818Z,98711.06
2024-03-02T18:22:25.146Z,98716.34
2024-03-02T18:25:27.656Z,98717.25
2024-03-02T18:28:29.895Z,98724.00
2024-03-02T18:31:32.078Z,98725.44
2024-03-02T18:34:37.095Z,98721.81
2024-03-02T18:37:41.128Z,98719.16
2024-03-02T18:40:48.093Z,98713.50
2024-03-02T18:43:50.307Z,98720.03
2024-03-02T18:46:52.808Z,98727.81
2024-03-02T18:49:56.469Z,98728.69
2024-03-02T18:53:01.387Z,98727.69
2024-03-02T18:56:07.354Z,98733.41
2024-03-02T18:59:09.585Z,98734.44
2024-03-02T19:02:12.881Z,98735.09
2024-03-02T19:05:15.207Z,98726.25
2024-03-02T19:08:20.444Z,98733.31
2024-03-02T19:11:22.748Z,98737.44
2024-03-02T19:14:24.941Z,98732.53
2024-03-02T19:17:27.268Z,98737.53
2024-03-02T19:20:29.679Z,98739.75
2024-03-02T19:23:36.585Z,98733.22
2024-03-02T19:26:42.531Z,98728.78
2024-03-02T19:29:44.808Z,98723.38
2024-03-02T19:32:47.091Z,98726.69
2024-03-02T19:35:49.307Z,98727.25
2024-03-02T19:38:52.000Z,98726.94
2024-03-02T19:41:54.853Z,98725.81
2024-03-02T19:44:57.120Z,98733.09
2024-03-02T19:47:59.420Z,98740.56
2024-03-02T19:51:01.684Z,98742.09
2024-03-02T19:54:05.652Z,98738.88
2024-03-02T19:57:07.801Z,98731.91
2024-03-02T20:00:11.019Z,98740.34
2024-03-02T20:03:13.274Z,98737.00
2024-03-02T20:06:15.516Z,98741.75
2024-03-02T20:09:17.770Z,98734.69
2024-03-02T20:12:20.107Z,98734.56
2024-03-02T20:15:22.527Z,98736.69
2024-03-02T20:18:25.679Z,98729.50
2024-03-02T20:21:27.985Z,98735.38
2024-03-02T20:24:30.223Z,98734.34
2024-03-02T20:27:32.472Z,98734.72
2024-03-02T20:30:34.675Z,98728.84
2024-03-02T20:33:36.898Z,98731.94
2024-03-02T20:36:40.492Z,98731.94
2024-03-02T20:39:43.760Z,98741.44
2024-03-02T20:42:47.263Z,98733.94
2024-03-02T20:45:49.449Z,98742.94
2024-03-02T20:48:51.744Z,98740.72
2024-03-02T20:51:53.960Z,98747.25
2024-03-02T20:54:56.173Z,98740.28
2024-03-02T20:57:58.521Z,98739.81
2024-03-02T21:01:00.738Z,98742.47
2024-03-02T21:04:03.950Z,98744.13
2024-03-02T21:07:06.238Z,98736.16
2024-03-02T21:10:10.171Z,98733.06
2024-03-02T21:13:12.515Z,98734.72
2024-03-02T21:16:14.772Z,98733.84
2024-03-02T21:19:17.837Z,98743.63
2024-03-02T21:22:22.834Z,98734.19
2024-03-02T21:25:26.109Z,98735.84
2024-03-02T21:28:28.702Z,98739.41
2024-03-02T21:31:30.887Z,98733.44
2024-03-02T21:34:33.212Z,98740.81
2024-03-02T21:37:35.409Z,98731.53
2024-03-02T21:40:37.664Z,98735.72
2024-03-02T21:43:40.769Z,98731.19
2024-03-02T21:46:43.101Z,98730.19
2024-03-02T21:49:45.455Z,98731.63
2024-03-02T21:52:48.022Z,98727.97
2024-03-02T21:55:50.207Z,98734.06
2024-03-02T21:58:52.366Z,98735.84
2024-03-02T22:01:54.714Z,98735.28
2024-03-02T22:04:57.239Z,98733.28
2024-03-02T22:07:59.481Z,98730.00
2024-03-02T22:11:01.762Z,98730.75
2024-03-02T22:14:03.941Z,98738.06
2024-03-02T22:17:06.258Z,98733.44
2024-03-02T22:20:09.000Z,98729.06
2024-03-02T22:23:11.200Z,98731.19
2024-03-02T22:26:13.362Z,98728.44
2024-03-02T22:29:15.567Z,98728.53
2024-03-02T22:32:17.871Z,98725.88
2024-03-02T22:35:21.932Z,98725.97
2024-03-02T22:38:28.222Z,98718.78
2024-03-02T22:41:30.618Z,98732.31
2024-03-02T22:44:35.339Z,98721.66
2024-03-02T22:47:37.644Z,98729.06
2024-03-02T22:50:39.784Z,98723.00
2024-03-02T22:53:42.572Z,98719.47
2024-03-02T22:56:46.233Z,98724.44
2024-03-02T22:59:51.554Z,98719.47
2024-03-02T23:02:54.528Z,98711.28
2024-03-02T23:05:56.849Z,98717.81
2024-03-02T23:08:59.278Z,98719.59
2024-03-02T23:12:01.619Z,98724.94
2024-03-02T23:15:04.064Z,98728.34
2024-03-02T23:18:06.443Z,98729.56
2024-03-02T23:21:08.679Z,98735.19
2024-03-02T23:24:11.150Z,98735.63
2024-03-02T23:27:13.350Z,98726.56
2024-03-02T23:30:19.252Z,98730.09
2024-03-02T23:33:21.762Z,98725.56
2024-03-02T23:36:24.023Z,98733.09
2024-03-02T23:39:44.780Z,98726.22
2024-03-02T23:42:47.124Z,98734.44
2024-03-02T23:45:49.345Z,98730.22
2024-03-02T23:48:51.717Z,98720.44
2024-03-02T23:51:54.983Z,98725.81
2024-03-02T23:54:57.241Z,98725.13
2024-03-02T23:57:59.619Z,98720.03
